Time;durP1;ratioP1;P1;durP2;ratioP2;P2;SDS_P1;SDS_P2;PMS_P1;PMS_P2;Temp;Humidity;BMP_temperature;BMP_pressure;BME280_temperature;BME280_humidity;BME280_pressure;Samples;Min_cycle;Max_cycle;Signal;HPM_P1;HPM_P2
2021/01/23 00:01:14;;;;;;;0.60;0.50;;;3.60;99.90;;;;;;5050552;28;20381;-78
2021/01/23 00:03:39;;;;;;;0.70;0.70;;;1.90;99.90;;;;;;5049758;28;20385;-78
2021/01/23 00:06:05;;;;;;;0.90;0.80;;;1.80;99.90;;;;;;5050719;28;20388;-79
2021/01/23 00:08:31;;;;;;;1.00;0.80;;;1.60;99.90;;;;;;5049392;28;20854;-79
2021/01/23 00:10:56;;;;;;;1.30;1.17;;;4.00;99.90;;;;;;5050233;28;20373;-79
2021/01/23 00:13:22;;;;;;;1.20;1.10;;;1.70;99.90;;;;;;5050315;28;20381;-79
2021/01/23 00:15:47;;;;;;;1.10;1.00;;;2.10;99.90;;;;;;5049577;28;20441;-79
2021/01/23 00:18:13;;;;;;;1.00;0.90;;;1.80;99.90;;;;;;5050204;28;20456;-80
2021/01/23 00:20:39;;;;;;;1.70;1.60;;;2.90;99.90;;;;;;5051992;28;20442;-79
2021/01/23 00:23:04;;;;;;;1.40;1.10;;;1.80;99.90;;;;;;5054119;28;20377;-79
2021/01/23 00:25:30;;;;;;;1.30;1.20;;;1.70;99.90;;;;;;5053313;28;20450;-79
2021/01/23 00:27:55;;;;;;;1.40;1.30;;;3.50;99.90;;;;;;5053804;28;20753;-79
2021/01/23 00:30:21;;;;;;;1.40;1.30;;;3.00;99.90;;;;;;5053926;28;20377;-79
2021/01/23 00:32:47;;;;;;;1.60;1.50;;;1.60;99.90;;;;;;5053213;28;20438;-79
2021/01/23 00:35:17;;;;;;;1.70;1.20;;;1.90;99.90;;;;;;5053333;28;20413;-80
2021/01/23 00:37:43;;;;;;;1.50;1.40;;;1.90;99.90;;;;;;5051790;28;20748;-80
2021/01/23 00:40:09;;;;;;;1.27;1.17;;;1.80;99.90;;;;;;5053736;28;20380;-80
2021/01/23 00:42:35;;;;;;;1.40;1.30;;;1.80;99.90;;;;;;5052730;28;20471;-81
2021/01/23 00:45:01;;;;;;;1.63;1.40;;;2.60;99.90;;;;;;5053405;28;20389;-81
2021/01/23 00:47:26;;;;;;;1.30;1.20;;;1.50;99.90;;;;;;5051954;28;20398;-80
2021/01/23 00:49:52;;;;;;;1.52;1.40;;;1.90;99.90;;;;;;5053066;28;20380;-81
2021/01/23 00:52:17;;;;;;;1.77;1.42;;;3.70;99.90;;;;;;5068927;28;20386;-81
2021/01/23 00:54:43;;;;;;;1.63;1.10;;;2.00;99.90;;;;;;5052244;28;20389;-80
2021/01/23 00:57:09;;;;;;;1.20;1.00;;;4.10;99.90;;;;;;5052809;28;20433;-80
2021/01/23 00:59:34;;;;;;;0.80;0.80;;;1.60;99.90;;;;;;5052486;28;20861;-79
2021/01/23 01:02:00;;;;;;;1.50;0.70;;;3.80;99.90;;;;;;5053215;28;20481;-79
2021/01/23 01:04:25;;;;;;;0.60;0.60;;;3.20;99.90;;;;;;5053214;28;20440;-79
2021/01/23 01:06:51;;;;;;;1.10;0.60;;;1.50;99.90;;;;;;5052333;28;20401;-79
2021/01/23 01:09:17;;;;;;;0.60;0.60;;;1.80;99.90;;;;;;5068238;28;20772;-79
2021/01/23 01:11:42;;;;;;;0.70;0.50;;;1.60;99.90;;;;;;5052462;28;20378;-78
2021/01/23 01:14:08;;;;;;;0.40;0.30;;;1.80;99.90;;;;;;5052986;28;20860;-78
2021/01/23 01:16:34;;;;;;;0.60;0.40;;;4.10;99.90;;;;;;5051806;28;20440;-78
2021/01/23 01:19:00;;;;;;;0.43;0.40;;;1.90;99.90;;;;;;5052957;28;20952;-77
2021/01/23 01:21:25;;;;;;;0.50;0.30;;;1.80;99.90;;;;;;5052816;28;20460;-77
2021/01/23 01:23:51;;;;;;;0.40;0.30;;;2.10;99.90;;;;;;5051951;28;20385;-77
2021/01/23 01:26:16;;;;;;;0.40;0.30;;;3.10;99.90;;;;;;5052679;28;20409;-77
2021/01/23 01:28:42;;;;;;;0.50;0.30;;;2.20;99.90;;;;;;5051876;28;20382;-76
2021/01/23 01:31:08;;;;;;;0.50;0.30;;;1.90;99.90;;;;;;5052471;28;20425;-76
2021/01/23 01:33:34;;;;;;;0.50;0.40;;;3.90;99.90;;;;;;5052228;28;20382;-76
2021/01/23 01:35:59;;;;;;;0.50;0.40;;;4.10;99.90;;;;;;5052640;28;20642;-76
2021/01/23 01:38:25;;;;;;;0.87;0.30;;;1.90;99.90;;;;;;5052753;28;20475;-76
2021/01/23 01:40:51;;;;;;;0.60;0.50;;;4.20;99.90;;;;;;5051711;28;20384;-76
2021/01/23 01:43:17;;;;;;;0.40;0.30;;;1.70;99.90;;;;;;5052661;28;20381;-76
2021/01/23 01:45:43;;;;;;;0.40;0.30;;;3.80;99.90;;;;;;5051803;28;20397;-77
2021/01/23 01:48:11;;;;;;;0.50;0.30;;;2.20;99.90;;;;;;5052477;28;20393;-76
2021/01/23 01:50:37;;;;;;;0.40;0.30;;;2.00;99.90;;;;;;5067181;28;20841;-77
2021/01/23 01:53:03;;;;;;;0.40;0.30;;;4.00;99.90;;;;;;5052417;28;20386;-76
2021/01/23 01:55:33;;;;;;;0.50;0.30;;;1.90;99.90;;;;;;5052619;28;20413;-77
2021/01/23 01:58:00;;;;;;;0.85;0.38;;;3.00;99.90;;;;;;5052287;28;20722;-77
2021/01/23 02:00:26;;;;;;;0.60;0.40;;;3.50;99.90;;;;;;5052241;28;20378;-75
2021/01/23 02:03:13;;;;;;;0.80;0.80;;;1.80;99.90;;;;;;5051230;28;20427;-75
2021/01/23 02:06:04;;;;;;;1.08;0.90;;;1.80;99.90;;;;;;5051324;28;20425;-76
2021/01/23 02:08:54;;;;;;;0.80;0.80;;;2.00;99.90;;;;;;5050703;28;20855;-78
2021/01/23 02:11:59;;;;;;;1.10;1.00;;;1.80;99.90;;;;;;5036266;28;20392;-75
2021/01/23 02:14:30;;;;;;;1.60;1.50;;;2.00;99.90;;;;;;5034487;28;20761;-75
2021/01/23 02:17:02;;;;;;;1.60;1.50;;;3.00;99.90;;;;;;5051569;28;20479;-76
2021/01/23 02:19:27;;;;;;;1.70;1.60;;;2.20;99.90;;;;;;5052139;28;20374;-76
2021/01/23 02:22:08;;;;;;;1.60;1.50;;;2.80;99.90;;;;;;5051425;28;20396;-76
2021/01/23 02:24:35;;;;;;;1.50;1.40;;;1.90;99.90;;;;;;5050958;28;20722;-78
2021/01/23 02:27:13;;;;;;;1.92;1.73;;;2.40;99.90;;;;;;5051717;28;20914;-76
2021/01/23 02:30:03;;;;;;;2.10;1.90;;;2.80;99.90;;;;;;5049814;28;20389;-76
2021/01/23 02:32:32;;;;;;;1.88;1.77;;;2.10;99.90;;;;;;5051613;28;20389;-76
2021/01/23 02:34:59;;;;;;;2.20;1.75;;;4.00;99.90;;;;;;5051354;28;20550;-76
2021/01/23 02:37:26;;;;;;;2.25;1.90;;;3.70;99.90;;;;;;5051708;28;20388;-76
2021/01/23 02:39:53;;;;;;;1.67;1.58;;;2.20;99.90;;;;;;5050990;28;20381;-76
2021/01/23 02:42:18;;;;;;;2.20;1.60;;;2.90;99.90;;;;;;5050777;28;20393;-76
2021/01/23 02:44:45;;;;;;;2.20;2.00;;;2.50;99.90;;;;;;5050484;28;20767;-76
2021/01/23 02:47:10;;;;;;;2.00;1.60;;;2.20;99.90;;;;;;5051355;28;20484;-75
2021/01/23 02:49:36;;;;;;;2.20;1.88;;;4.00;99.90;;;;;;5046213;28;20470;-76
2021/01/23 02:52:17;;;;;;;1.90;1.80;;;3.80;99.90;;;;;;5031579;28;20384;-76
2021/01/23 02:54:50;;;;;;;1.90;1.60;;;2.60;99.90;;;;;;5046418;28;20435;-76
2021/01/23 02:57:19;;;;;;;2.25;1.70;;;3.40;99.90;;;;;;5029878;28;20431;-76
2021/01/23 02:59:46;;;;;;;3.20;1.90;;;4.10;99.90;;;;;;5038334;28;20458;-76
2021/01/23 03:02:14;;;;;;;2.33;2.13;;;2.50;99.90;;;;;;5051402;28;20378;-76
2021/01/23 03:04:42;;;;;;;2.50;2.13;;;2.70;99.90;;;;;;5050568;28;20896;-76
2021/01/23 03:07:08;;;;;;;2.38;1.80;;;2.50;99.90;;;;;;5050946;28;20473;-76
2021/01/23 03:09:34;;;;;;;2.40;1.50;;;4.90;99.90;;;;;;5050455;28;20715;-78
2021/01/23 03:12:00;;;;;;;1.90;1.70;;;4.80;99.90;;;;;;5050740;28;20480;-77
2021/01/23 03:14:26;;;;;;;1.70;1.60;;;3.20;99.90;;;;;;5050762;28;20370;-77
2021/01/23 03:16:53;;;;;;;1.43;1.33;;;2.70;99.90;;;;;;5049666;28;20956;-77
2021/01/23 03:19:20;;;;;;;2.03;1.63;;;3.90;99.90;;;;;;5049630;28;20400;-77
2021/01/23 03:21:47;;;;;;;2.40;1.60;;;4.90;99.90;;;;;;5050002;28;20887;-78
2021/01/23 03:24:14;;;;;;;2.22;1.70;;;3.00;99.90;;;;;;5050668;28;20750;-77
2021/01/23 03:26:39;;;;;;;1.92;1.80;;;3.00;99.90;;;;;;5049905;28;20406;-77
2021/01/23 03:29:05;;;;;;;1.93;1.73;;;5.00;99.90;;;;;;5050605;28;20520;-77
2021/01/23 03:31:32;;;;;;;1.47;1.37;;;2.90;99.90;;;;;;5050634;28;20474;-77
2021/01/23 03:33:57;;;;;;;2.20;1.60;;;3.00;99.90;;;;;;5048647;28;20864;-76
2021/01/23 03:36:24;;;;;;;1.30;1.20;;;4.70;99.90;;;;;;5050447;28;20455;-77
2021/01/23 03:38:51;;;;;;;1.90;1.60;;;2.90;99.90;;;;;;5049536;28;20431;-76
2021/01/23 03:41:17;;;;;;;1.80;1.30;;;4.00;99.90;;;;;;5050606;28;20385;-76
2021/01/23 03:43:42;;;;;;;2.90;1.90;;;4.80;99.90;;;;;;5049306;28;20382;-76
2021/01/23 03:46:08;;;;;;;1.30;1.20;;;5.60;99.90;;;;;;5050422;28;20377;-76
2021/01/23 03:48:34;;;;;;;1.63;1.40;;;4.20;99.90;;;;;;5050308;28;20389;-76
2021/01/23 03:50:59;;;;;;;1.80;1.40;;;3.60;99.90;;;;;;5049577;28;20464;-76
2021/01/23 03:53:25;;;;;;;1.80;1.50;;;3.10;99.90;;;;;;5049644;28;20464;-76
2021/01/23 03:55:50;;;;;;;1.20;1.10;;;4.10;99.90;;;;;;5049082;28;20824;-76
2021/01/23 03:58:17;;;;;;;1.57;1.47;;;3.10;99.90;;;;;;5050154;28;20413;-76
2021/01/23 04:00:43;;;;;;;1.00;0.80;;;3.30;99.90;;;;;;5049646;28;20407;-76
2021/01/23 04:03:09;;;;;;;1.48;1.20;;;3.30;99.90;;;;;;5050270;28;20378;-75
2021/01/23 04:05:35;;;;;;;2.23;1.20;;;5.20;99.90;;;;;;5050104;28;20390;-76
2021/01/23 04:08:00;;;;;;;1.20;1.10;;;3.60;99.90;;;;;;5049407;28;20381;-76
2021/01/23 04:10:26;;;;;;;1.88;1.10;;;3.30;99.90;;;;;;5050321;28;20381;-76
2021/01/23 04:12:52;;;;;;;1.30;1.20;;;3.10;99.90;;;;;;5049430;28;20404;-76
2021/01/23 04:15:18;;;;;;;1.57;0.90;;;5.30;99.90;;;;;;5049991;28;20384;-76
2021/01/23 04:17:43;;;;;;;1.20;0.90;;;4.40;99.90;;;;;;5049498;28;20378;-76
2021/01/23 04:20:09;;;;;;;0.90;0.80;;;3.70;99.90;;;;;;5050203;28;20373;-75
2021/01/23 04:22:35;;;;;;;1.90;1.05;;;3.30;99.90;;;;;;5049962;28;20888;-75
2021/01/23 04:25:01;;;;;;;1.33;0.73;;;3.20;99.90;;;;;;5049211;28;20389;-76
2021/01/23 04:27:27;;;;;;;1.25;1.10;;;3.10;99.90;;;;;;5050152;28;20397;-76
2021/01/23 04:29:53;;;;;;;1.40;1.30;;;3.50;99.90;;;;;;5049494;28;20433;-75
2021/01/23 04:32:18;;;;;;;1.70;1.20;;;4.50;99.90;;;;;;5050159;28;20730;-75
2021/01/23 04:34:44;;;;;;;1.30;1.20;;;5.00;99.90;;;;;;5049591;28;20721;-75
2021/01/23 04:37:09;;;;;;;1.23;1.13;;;5.30;99.90;;;;;;5048887;28;20818;-75
2021/01/23 04:39:36;;;;;;;1.30;1.20;;;3.00;99.90;;;;;;5049932;28;20387;-75
2021/01/23 04:42:08;;;;;;;1.50;1.10;;;3.00;99.90;;;;;;5049555;28;20543;-75
2021/01/23 04:44:34;;;;;;;1.10;1.00;;;3.40;99.90;;;;;;5050069;28;20464;-75
2021/01/23 04:47:02;;;;;;;1.63;1.10;;;5.70;99.90;;;;;;5049391;28;20393;-75
2021/01/23 04:49:30;;;;;;;1.02;0.93;;;3.60;99.90;;;;;;5049781;28;20393;-75
2021/01/23 04:51:55;;;;;;;1.20;1.10;;;3.60;99.90;;;;;;5049466;28;20455;-76
2021/01/23 04:54:21;;;;;;;0.95;0.88;;;4.40;99.90;;;;;;5048942;28;20842;-76
2021/01/23 04:56:49;;;;;;;1.27;1.10;;;3.50;99.90;;;;;;5048987;28;20895;-76
2021/01/23 04:59:14;;;;;;;1.40;1.30;;;5.90;99.90;;;;;;5050282;28;20451;-75
2021/01/23 05:01:40;;;;;;;1.10;1.00;;;4.10;99.90;;;;;;5048137;28;20788;-79
2021/01/23 05:04:05;;;;;;;1.03;0.90;;;3.90;99.90;;;;;;5049670;28;20382;-76
2021/01/23 05:06:31;;;;;;;1.30;1.00;;;3.40;99.90;;;;;;5052591;28;20386;-75
2021/01/23 05:08:57;;;;;;;2.93;1.00;;;3.60;99.90;;;;;;5052965;28;20782;-75
2021/01/23 05:11:46;;;;;;;1.50;0.90;;;3.50;99.90;;;;;;5053936;28;20924;-76
2021/01/23 05:14:15;;;;;;;2.50;1.00;;;3.80;99.90;;;;;;5053764;28;20448;-76
2021/01/23 05:16:42;;;;;;;1.10;0.95;;;5.40;99.90;;;;;;5053186;28;20405;-80
2021/01/23 05:19:09;;;;;;;1.48;1.00;;;3.50;99.90;;;;;;5053625;28;20384;-76
2021/01/23 05:21:35;;;;;;;1.75;1.30;;;5.60;99.90;;;;;;5053636;28;20431;-76
2021/01/23 05:24:06;;;;;;;2.80;1.40;;;5.00;99.90;;;;;;5052515;28;20382;-76
2021/01/23 05:26:32;;;;;;;1.40;1.30;;;3.00;99.90;;;;;;5053346;28;20811;-76
2021/01/23 05:29:14;;;;;;;1.60;1.20;;;4.30;99.90;;;;;;5052694;28;20432;-76
2021/01/23 05:31:41;;;;;;;1.77;1.23;;;2.60;99.90;;;;;;5053504;28;20421;-78
2021/01/23 05:34:31;;;;;;;2.20;1.40;;;2.40;99.90;;;;;;5051340;28;20397;-76
2021/01/23 05:36:57;;;;;;;2.30;1.70;;;3.40;99.90;;;;;;5052587;28;20409;-76
2021/01/23 05:39:47;;;;;;;2.00;1.38;;;3.30;99.90;;;;;;5053301;28;20386;-76
2021/01/23 05:42:13;;;;;;;3.90;1.35;;;3.60;99.90;;;;;;5053569;28;20404;-76
2021/01/23 05:44:39;;;;;;;1.23;1.10;;;4.50;99.90;;;;;;5053123;28;20382;-76
2021/01/23 05:47:34;;;;;;;1.65;1.10;;;3.70;99.90;;;;;;5052430;28;20477;-76
2021/01/23 05:50:00;;;;;;;2.30;1.20;;;5.60;99.90;;;;;;5023485;28;20875;-76
2021/01/23 05:52:27;;;;;;;1.20;1.02;;;3.50;99.90;;;;;;5031930;28;20448;-76
2021/01/23 05:54:52;;;;;;;1.08;0.98;;;5.50;99.90;;;;;;5031959;28;20437;-76
2021/01/23 05:57:18;;;;;;;1.60;1.00;;;4.10;99.90;;;;;;5064649;28;20855;-76
2021/01/23 05:59:45;;;;;;;0.80;0.80;;;5.10;99.90;;;;;;5064693;28;20383;-80
2021/01/23 06:02:12;;;;;;;1.73;1.10;;;4.20;99.90;;;;;;5032550;28;20406;-76
2021/01/23 06:04:42;;;;;;;0.90;0.77;;;3.90;99.90;;;;;;5031774;28;20847;-75
2021/01/23 06:07:11;;;;;;;0.90;0.90;;;3.90;99.90;;;;;;5069498;28;20422;-76
2021/01/23 06:09:42;;;;;;;1.98;0.98;;;4.90;99.90;;;;;;5052093;28;20378;-76
2021/01/23 06:12:30;;;;;;;2.10;1.00;;;3.80;99.90;;;;;;5051478;28;20397;-76
2021/01/23 06:14:56;;;;;;;1.33;1.00;;;3.80;99.90;;;;;;5041679;28;20400;-76
2021/01/23 06:17:47;;;;;;;2.35;0.90;;;4.40;99.90;;;;;;5050981;28;20757;-76
2021/01/23 06:20:40;;;;;;;1.07;0.97;;;3.90;99.90;;;;;;5050215;28;20556;-76
2021/01/23 06:23:11;;;;;;;2.00;1.30;;;3.70;99.90;;;;;;5050456;28;20447;-76
2021/01/23 06:25:48;;;;;;;1.10;1.00;;;4.00;99.90;;;;;;5051867;28;20382;-76
2021/01/23 06:28:18;;;;;;;2.30;0.88;;;4.00;99.90;;;;;;5050049;28;20842;-76
2021/01/23 06:30:43;;;;;;;2.22;1.30;;;4.00;99.90;;;;;;5051697;28;20397;-79
2021/01/23 06:33:21;;;;;;;1.20;1.00;;;3.80;99.90;;;;;;5050075;28;20382;-76
2021/01/23 06:36:05;;;;;;;3.70;2.13;;;5.00;99.90;;;;;;5051053;28;20409;-80
2021/01/23 06:38:31;;;;;;;2.40;1.20;;;4.00;99.90;;;;;;5049166;28;20381;-77
2021/01/23 06:41:25;;;;;;;1.42;1.05;;;3.90;99.90;;;;;;5050746;28;20377;-76
2021/01/23 06:44:06;;;;;;;2.80;1.60;;;3.70;99.90;;;;;;5047930;28;20882;-77
2021/01/23 06:46:35;;;;;;;3.70;1.00;;;5.30;99.90;;;;;;5051542;28;20516;-77
2021/01/23 06:49:03;;;;;;;1.48;1.15;;;5.20;99.90;;;;;;5047454;28;20438;-77
2021/01/23 06:51:28;;;;;;;1.60;1.20;;;3.60;99.90;;;;;;5050903;28;20401;-76
2021/01/23 06:54:12;;;;;;;1.70;1.00;;;4.30;99.90;;;;;;5050277;28;20385;-77
2021/01/23 06:56:44;;;;;;;1.13;0.93;;;3.80;99.90;;;;;;5046494;28;20437;-76
2021/01/23 06:59:31;;;;;;;2.40;1.20;;;4.20;99.90;;;;;;5048575;28;20393;-78
2021/01/23 07:02:00;;;;;;;2.30;1.30;;;5.10;99.90;;;;;;5049665;28;20529;-77
2021/01/23 07:04:27;;;;;;;2.20;0.80;;;5.80;99.90;;;;;;5050955;28;20381;-77
2021/01/23 07:06:54;;;;;;;0.80;0.80;;;3.80;99.90;;;;;;5050214;28;20439;-77
2021/01/23 07:09:20;;;;;;;1.05;0.70;;;5.20;99.90;;;;;;5050886;28;20804;-76
2021/01/23 07:11:46;;;;;;;2.80;1.00;;;3.80;99.90;;;;;;5050690;28;20862;-80
2021/01/23 07:14:12;;;;;;;1.90;1.00;;;5.10;99.90;;;;;;5050660;28;20388;-76
2021/01/23 07:16:39;;;;;;;1.58;0.80;;;4.00;99.90;;;;;;5050985;28;20774;-77
2021/01/23 07:19:07;;;;;;;1.10;1.00;;;4.10;99.90;;;;;;5050110;28;20385;-77
2021/01/23 07:21:35;;;;;;;0.75;0.75;;;6.60;99.90;;;;;;5050998;28;20854;-77
2021/01/23 07:24:02;;;;;;;0.82;0.82;;;5.50;99.90;;;;;;5062955;28;20393;-77
2021/01/23 07:26:28;;;;;;;0.80;0.50;;;4.20;99.90;;;;;;5050821;28;20401;-77
2021/01/23 07:28:55;;;;;;;1.00;0.77;;;4.30;99.90;;;;;;5049988;28;20389;-78
2021/01/23 07:31:26;;;;;;;0.70;0.65;;;5.90;99.90;;;;;;5048006;28;20392;-78
2021/01/23 07:33:52;;;;;;;1.00;0.90;;;4.60;99.90;;;;;;5050207;28;20392;-79
2021/01/23 07:36:40;;;;;;;3.03;0.70;;;4.50;99.90;;;;;;5049397;28;20412;-78
2021/01/23 07:39:19;;;;;;;2.00;0.60;;;4.20;99.90;;;;;;5045356;28;20439;-78
2021/01/23 07:41:50;;;;;;;0.70;0.70;;;4.30;99.90;;;;;;5048278;28;20439;-77
2021/01/23 07:44:16;;;;;;;0.90;0.70;;;4.40;99.90;;;;;;5050744;28;20468;-77
2021/01/23 07:46:44;;;;;;;1.02;0.90;;;4.40;99.90;;;;;;5047975;28;20424;-77
2021/01/23 07:49:28;;;;;;;2.83;0.60;;;4.40;99.90;;;;;;5049795;28;20377;-77
2021/01/23 07:52:08;;;;;;;0.82;0.80;;;5.90;99.90;;;;;;5048537;28;20373;-76
2021/01/23 07:54:47;;;;;;;0.88;0.68;;;4.30;99.90;;;;;;5049532;28;20412;-75
2021/01/23 07:57:13;;;;;;;2.70;0.70;;;5.50;99.90;;;;;;5048460;28;20436;-76
2021/01/23 07:59:50;;;;;;;1.60;0.70;;;4.70;99.90;;;;;;5050798;28;20386;-77
2021/01/23 08:02:17;;;;;;;2.75;1.15;;;4.70;99.90;;;;;;5049946;28;20390;-77
2021/01/23 08:04:47;;;;;;;1.50;0.90;;;4.90;99.90;;;;;;5047564;28;20388;-77
2021/01/23 08:07:32;;;;;;;0.70;0.70;;;5.80;99.90;;;;;;5049546;28;21234;-78
2021/01/23 08:10:04;;;;;;;1.25;0.88;;;4.80;99.90;;;;;;5043961;28;20553;-79
2021/01/23 08:12:29;;;;;;;1.80;0.80;;;4.50;99.90;;;;;;5049610;28;20407;-78
2021/01/23 08:14:56;;;;;;;0.60;0.60;;;5.40;99.90;;;;;;5048255;28;20798;-80
2021/01/23 08:17:46;;;;;;;0.95;0.77;;;4.30;99.90;;;;;;5048419;28;20434;-79
2021/01/23 08:20:17;;;;;;;1.40;0.63;;;4.70;99.90;;;;;;5044931;28;20373;-77
2021/01/23 08:23:04;;;;;;;1.17;0.70;;;6.40;99.90;;;;;;5046477;28;20427;-77
2021/01/23 08:25:57;;;;;;;1.50;0.60;;;4.80;99.90;;;;;;5047357;28;20694;-78
2021/01/23 08:28:40;;;;;;;1.37;0.90;;;5.00;99.90;;;;;;5047910;28;20472;-77
2021/01/23 08:31:20;;;;;;;1.13;0.63;;;7.50;99.90;;;;;;5043951;28;20495;-78
2021/01/23 08:33:52;;;;;;;1.90;0.70;;;5.40;99.90;;;;;;5047908;28;21087;-79
2021/01/23 08:36:18;;;;;;;0.80;0.60;;;5.20;99.90;;;;;;5049174;28;20500;-77
2021/01/23 08:38:44;;;;;;;0.82;0.50;;;5.40;99.90;;;;;;5047622;28;20389;-77
2021/01/23 08:41:10;;;;;;;1.48;0.75;;;6.00;99.90;;;;;;5046297;28;20393;-77
2021/01/23 08:43:35;;;;;;;1.07;0.67;;;4.60;99.90;;;;;;5052407;28;20388;-79
2021/01/23 08:46:01;;;;;;;0.90;0.50;;;5.40;99.90;;;;;;5048454;28;20387;-77
2021/01/23 08:48:27;;;;;;;0.90;0.70;;;4.70;99.90;;;;;;5051423;28;20395;-76
2021/01/23 08:50:52;;;;;;;2.05;0.70;;;4.90;99.90;;;;;;5047204;28;20466;-78
2021/01/23 08:53:18;;;;;;;1.20;0.60;;;5.30;99.90;;;;;;5050564;28;20474;-76
2021/01/23 08:55:44;;;;;;;1.00;0.70;;;5.00;99.90;;;;;;5051180;28;21518;-77
2021/01/23 08:58:09;;;;;;;0.70;0.60;;;6.80;99.90;;;;;;5051463;28;20970;-77
2021/01/23 09:00:35;;;;;;;1.17;0.60;;;5.50;99.90;;;;;;5049415;28;20448;-76
2021/01/23 09:03:02;;;;;;;0.85;0.60;;;6.80;99.90;;;;;;5050381;28;20393;-80
2021/01/23 09:05:28;;;;;;;0.80;0.70;;;5.40;99.90;;;;;;5051325;28;20786;-78
2021/01/23 09:07:53;;;;;;;0.80;0.70;;;5.20;99.90;;;;;;5051896;28;20394;-78
2021/01/23 09:10:20;;;;;;;1.65;1.20;;;5.50;99.90;;;;;;5045198;28;20397;-76
2021/01/23 09:12:47;;;;;;;2.80;1.10;;;4.90;99.90;;;;;;5050478;28;20438;-77
2021/01/23 09:15:13;;;;;;;1.52;1.27;;;6.10;99.90;;;;;;5051003;28;20525;-76
2021/01/23 09:17:39;;;;;;;2.20;1.00;;;5.20;99.90;;;;;;5051245;28;20401;-76
2021/01/23 09:20:06;;;;;;;1.23;1.13;;;5.70;99.90;;;;;;5050476;28;20443;-76
2021/01/23 09:22:32;;;;;;;1.65;1.55;;;5.50;99.90;;;;;;5049428;28;20388;-76
2021/01/23 09:24:59;;;;;;;2.47;1.40;;;5.20;99.90;;;;;;5049622;28;20398;-77
2021/01/23 09:27:25;;;;;;;1.50;1.38;;;5.20;99.90;;;;;;5051508;28;20397;-76
2021/01/23 09:29:51;;;;;;;2.20;1.60;;;5.50;99.90;;;;;;5050152;28;20450;-76
2021/01/23 09:32:20;;;;;;;2.00;1.63;;;5.70;99.90;;;;;;5049369;28;21077;-76
2021/01/23 09:34:47;;;;;;;3.78;1.80;;;4.90;99.90;;;;;;5051996;28;20379;-76
2021/01/23 09:37:12;;;;;;;2.35;1.65;;;5.30;99.90;;;;;;5050536;28;20421;-80
2021/01/23 09:39:38;;;;;;;2.25;1.70;;;6.60;99.90;;;;;;5048365;28;20449;-78
2021/01/23 09:42:05;;;;;;;3.45;1.77;;;5.40;99.90;;;;;;5048746;28;20375;-78
2021/01/23 09:44:31;;;;;;;2.45;1.90;;;4.70;99.90;;;;;;5049236;28;20397;-76
2021/01/23 09:46:56;;;;;;;1.70;1.60;;;6.30;99.90;;;;;;5053283;28;20453;-79
2021/01/23 09:49:22;;;;;;;2.03;1.80;;;4.90;99.90;;;;;;5050642;28;20390;-78
2021/01/23 09:51:48;;;;;;;2.25;2.00;;;5.70;99.90;;;;;;5047784;28;20471;-77
2021/01/23 09:54:14;;;;;;;2.30;2.10;;;5.20;99.90;;;;;;5050097;28;21181;-78
2021/01/23 09:56:40;;;;;;;2.23;1.90;;;5.20;99.90;;;;;;5050401;28;20429;-78
2021/01/23 09:59:05;;;;;;;2.83;1.90;;;5.10;99.90;;;;;;5050109;28;20391;-78
2021/01/23 10:01:31;;;;;;;2.33;2.00;;;5.00;99.90;;;;;;5048381;28;20478;-78
2021/01/23 10:03:57;;;;;;;2.38;1.50;;;6.40;99.90;;;;;;5051811;28;20384;-78
2021/01/23 10:06:23;;;;;;;2.15;1.95;;;5.30;99.90;;;;;;5050685;28;21698;-77
2021/01/23 10:08:49;;;;;;;2.13;1.90;;;5.20;99.90;;;;;;5049451;28;20395;-77
2021/01/23 10:11:15;;;;;;;2.72;2.00;;;5.60;99.90;;;;;;5045808;28;20720;-77
2021/01/23 10:13:41;;;;;;;3.33;2.10;;;4.60;99.90;;;;;;5049431;28;20404;-76
2021/01/23 10:16:07;;;;;;;2.92;2.40;;;5.50;99.90;;;;;;5049876;28;20418;-77
2021/01/23 10:18:35;;;;;;;2.45;2.05;;;5.30;99.90;;;;;;5051587;28;20397;-76
2021/01/23 10:21:05;;;;;;;3.65;1.90;;;5.00;99.90;;;;;;5046855;28;20828;-78
2021/01/23 10:23:31;;;;;;;4.57;2.00;;;5.00;99.90;;;;;;5049290;28;20383;-77
2021/01/23 10:25:58;;;;;;;2.60;1.65;;;6.30;99.90;;;;;;5054846;28;20381;-76
2021/01/23 10:28:23;;;;;;;2.50;1.60;;;5.30;99.90;;;;;;5050544;28;20398;-75
2021/01/23 10:30:49;;;;;;;2.40;1.98;;;5.60;99.90;;;;;;5047388;28;20473;-76
2021/01/23 10:33:14;;;;;;;2.78;2.00;;;6.50;99.90;;;;;;5052052;28;20388;-76
2021/01/23 10:35:40;;;;;;;1.65;1.55;;;6.50;99.90;;;;;;5050914;28;20414;-76
2021/01/23 10:38:06;;;;;;;2.20;1.70;;;5.70;99.90;;;;;;5050635;28;20392;-76
2021/01/23 10:40:31;;;;;;;3.17;2.23;;;6.10;99.90;;;;;;5049495;28;21241;-77
2021/01/23 10:42:57;;;;;;;3.90;1.90;;;5.90;99.90;;;;;;5050371;28;20384;-75
2021/01/23 10:45:23;;;;;;;2.27;2.07;;;5.60;99.90;;;;;;5051321;28;20435;-75
2021/01/23 10:47:48;;;;;;;2.30;1.80;;;6.10;99.90;;;;;;5051172;28;20381;-75
2021/01/23 10:50:14;;;;;;;3.33;1.90;;;6.00;99.90;;;;;;5049504;28;20385;-75
2021/01/23 10:52:40;;;;;;;2.83;1.90;;;5.80;99.90;;;;;;5049857;28;20392;-76
2021/01/23 10:55:07;;;;;;;2.30;1.80;;;5.80;99.90;;;;;;5049631;28;20389;-75
2021/01/23 10:57:33;;;;;;;3.17;2.10;;;5.60;99.90;;;;;;5049647;28;20448;-75
2021/01/23 10:59:58;;;;;;;2.77;2.10;;;6.80;99.90;;;;;;5047135;28;20385;-76
2021/01/23 11:02:24;;;;;;;2.40;2.10;;;;;;;;;;5049935;28;20373;-76
2021/01/23 11:04:50;;;;;;;5.00;1.88;;;5.90;99.90;;;;;;5049696;28;20386;-77
2021/01/23 11:07:16;;;;;;;1.60;1.40;;;7.30;99.90;;;;;;5049040;28;20388;-76
2021/01/23 11:09:41;;;;;;;2.33;1.60;;;6.20;99.90;;;;;;5057296;28;20406;-77
2021/01/23 11:12:08;;;;;;;4.72;1.80;;;6.10;99.90;;;;;;5048931;28;20401;-78
2021/01/23 11:14:35;;;;;;;1.35;1.25;;;6.30;99.90;;;;;;5050658;28;20719;-77
2021/01/23 11:17:01;;;;;;;1.75;1.60;;;7.00;99.90;;;;;;5050405;28;20806;-75
2021/01/23 11:19:27;;;;;;;1.73;1.30;;;7.00;99.90;;;;;;5049473;28;20924;-77
2021/01/23 11:21:53;;;;;;;3.45;1.80;;;6.60;99.90;;;;;;5050325;28;20416;-76
2021/01/23 11:24:20;;;;;;;1.42;1.33;;;6.50;99.90;;;;;;5048413;28;20468;-76
2021/01/23 11:26:46;;;;;;;3.88;1.88;;;6.30;99.90;;;;;;5050344;28;20492;-76
2021/01/23 11:29:11;;;;;;;2.63;1.63;;;6.40;99.90;;;;;;5049977;28;20480;-77
2021/01/23 11:31:37;;;;;;;2.20;1.80;;;7.70;99.90;;;;;;5050367;28;20393;-76
2021/01/23 11:34:03;;;;;;;2.88;1.70;;;6.10;99.90;;;;;;5050296;28;20430;-77
2021/01/23 11:36:31;;;;;;;2.92;1.88;;;6.10;99.90;;;;;;5049768;28;20405;-76
2021/01/23 11:38:57;;;;;;;1.90;1.70;;;6.50;99.90;;;;;;5049267;28;20440;-75
2021/01/23 11:41:24;;;;;;;1.77;1.67;;;6.30;99.90;;;;;;5049449;28;20870;-76
2021/01/23 11:43:49;;;;;;;2.47;1.85;;;6.10;99.90;;;;;;5047412;28;20447;-76
2021/01/23 11:46:16;;;;;;;2.40;1.90;;;7.80;99.90;;;;;;5049608;28;20423;-76
2021/01/23 11:48:41;;;;;;;2.00;1.58;;;6.20;99.90;;;;;;5050210;28;20408;-76
2021/01/23 11:51:07;;;;;;;3.00;2.00;;;6.40;99.90;;;;;;5049561;28;20386;-78
2021/01/23 11:53:33;;;;;;;2.07;1.87;;;7.10;99.90;;;;;;5048079;28;20384;-76
2021/01/23 11:55:59;;;;;;;3.70;2.10;;;6.70;99.90;;;;;;5049988;28;20405;-76
2021/01/23 11:58:24;;;;;;;2.45;1.90;;;7.60;99.90;;;;;;5049102;28;20400;-76
2021/01/23 12:00:50;;;;;;;3.67;2.35;;;7.10;99.90;;;;;;5050336;28;20439;-76
2021/01/23 12:03:19;;;;;;;3.00;2.00;;;7.40;99.90;;;;;;5049373;28;20377;-76
2021/01/23 12:05:45;;;;;;;2.10;1.90;;;9.50;99.90;;;;;;5049931;28;20516;-76
2021/01/23 12:08:10;;;;;;;2.90;2.00;;;7.80;99.90;;;;;;5046966;28;20382;-76
2021/01/23 12:10:36;;;;;;;1.97;1.77;;;8.50;99.90;;;;;;5050799;28;20389;-76
2021/01/23 12:13:02;;;;;;;2.20;1.50;;;9.80;99.90;;;;;;5050279;28;20381;-76
2021/01/23 12:15:28;;;;;;;2.30;1.93;;;9.40;99.90;;;;;;5048425;28;20377;-76
2021/01/23 12:17:53;;;;;;;1.50;1.40;;;10.00;99.90;;;;;;5050160;28;20393;-76
2021/01/23 12:20:21;;;;;;;2.87;1.47;;;10.70;99.90;;;;;;5049652;28;20393;-76
2021/01/23 12:22:47;;;;;;;2.35;1.65;;;10.20;99.90;;;;;;5050008;28;20741;-76
2021/01/23 12:25:15;;;;;;;2.53;1.55;;;10.30;99.90;;;;;;5049627;28;20389;-76
2021/01/23 12:27:40;;;;;;;2.55;1.40;;;8.60;99.90;;;;;;5049771;28;20411;-76
2021/01/23 12:30:12;;;;;;;1.50;1.30;;;8.40;99.90;;;;;;5049991;28;20378;-77
2021/01/23 12:32:38;;;;;;;2.40;1.67;;;8.10;99.90;;;;;;5049660;28;20386;-75
2021/01/23 12:35:06;;;;;;;2.63;1.55;;;7.80;99.90;;;;;;5049950;28;20381;-75
2021/01/23 12:37:32;;;;;;;1.80;1.70;;;7.60;99.90;;;;;;5049050;28;20424;-77
2021/01/23 12:39:58;;;;;;;2.10;1.80;;;7.30;99.90;;;;;;5049882;28;20389;-76
2021/01/23 12:42:25;;;;;;;1.63;1.37;;;7.60;99.90;;;;;;5047461;28;20384;-75
2021/01/23 12:44:51;;;;;;;2.58;1.60;;;7.70;99.90;;;;;;5049861;28;20381;-75
2021/01/23 12:47:17;;;;;;;2.80;2.00;;;7.90;99.90;;;;;;5048761;28;20435;-76
2021/01/23 12:49:43;;;;;;;3.10;1.58;;;8.70;99.90;;;;;;5047147;28;20408;-76
2021/01/23 12:52:08;;;;;;;1.90;1.40;;;7.00;99.90;;;;;;5031804;28;20791;-76
2021/01/23 12:54:34;;;;;;;3.20;1.70;;;7.50;99.90;;;;;;5047738;28;20417;-76
2021/01/23 12:57:00;;;;;;;2.80;1.50;;;8.90;99.90;;;;;;5049259;28;20432;-76
2021/01/23 12:59:25;;;;;;;2.80;1.60;;;7.20;99.90;;;;;;5049014;28;20424;-76
2021/01/23 13:01:51;;;;;;;2.30;1.50;;;7.90;99.90;;;;;;5047021;28;20377;-76
2021/01/23 13:04:17;;;;;;;1.73;1.37;;;7.20;99.90;;;;;;5046399;28;20395;-76